Time;durP1;ratioP1;P1;durP2;ratioP2;P2;SDS_P1;SDS_P2;PMS_P1;PMS_P2;Temp;Humidity;BMP_temperature;BMP_pressure;BME280_temperature;BME280_humidity;BME280_pressure;Samples;Min_cycle;Max_cycle;Signal;HPM_P1;HPM_P2
2023/02/07 00:00:39;;;;;;;17.93;9.60;;;;;;;-6.86;66.67;99923.38;7507137;23;20226;-59
2023/02/07 00:03:42;;;;;;;17.70;10.03;;;;;;;-6.88;66.97;99936.44;7508714;23;20281;-59
2023/02/07 00:06:44;;;;;;;16.67;9.07;;;;;;;-6.83;67.09;99938.78;7508572;23;20210;-58
2023/02/07 00:09:46;;;;;;;18.27;9.50;;;;;;;-6.79;67.12;99953.28;7506699;23;20214;-57
2023/02/07 00:12:49;;;;;;;18.07;9.70;;;;;;;-6.76;67.23;99948.75;7509573;23;20214;-59
2023/02/07 00:15:51;;;;;;;17.00;10.00;;;;;;;-6.67;66.92;99957.84;7507779;23;20203;-59
2023/02/07 00:18:54;;;;;;;18.27;10.33;;;;;;;-6.63;66.75;99959.38;7507894;23;20289;-58
2023/02/07 00:21:56;;;;;;;19.37;10.97;;;;;;;-6.92;66.59;99914.19;7508396;23;20247;-57
2023/02/07 00:24:58;;;;;;;20.47;10.63;;;;;;;-6.62;66.30;99955.00;7508219;23;20234;-56
2023/02/07 00:28:00;;;;;;;16.27;10.00;;;;;;;-6.70;66.51;99936.41;7505587;23;20289;-57
2023/02/07 00:31:14;;;;;;;15.73;9.10;;;;;;;-6.58;66.40;99959.97;7507053;23;20215;-57
2023/02/07 00:34:17;;;;;;;16.00;9.30;;;;;;;-6.85;65.96;99918.13;7507983;23;20219;-58
2023/02/07 00:37:19;;;;;;;15.83;8.90;;;;;;;-6.60;65.78;99963.53;7506408;23;20293;-57
2023/02/07 00:40:22;;;;;;;19.73;11.23;;;;;;;-6.67;65.23;99952.66;7508238;23;20376;-57
2023/02/07 00:43:24;;;;;;;17.73;9.97;;;;;;;-6.91;66.23;99927.97;7508072;23;20667;-54
2023/02/07 00:46:31;;;;;;;18.57;10.90;;;;;;;-6.69;66.26;99970.06;7507204;23;20226;-58
2023/02/07 00:49:33;;;;;;;18.97;10.30;;;;;;;-6.72;66.54;99972.78;7509184;23;20234;-58
2023/02/07 00:52:35;;;;;;;21.47;10.63;;;;;;;-6.76;66.40;99973.84;7507242;23;20265;-58
2023/02/07 00:55:38;;;;;;;21.43;10.47;;;;;;;-6.79;66.61;99961.88;7508626;23;20218;-57
2023/02/07 00:58:41;;;;;;;16.73;10.13;;;;;;;-6.80;66.70;99959.34;7505741;23;20221;-58
2023/02/07 01:01:43;;;;;;;19.30;10.83;;;;;;;-6.75;66.58;99959.97;7507392;23;20225;-58
2023/02/07 01:04:45;;;;;;;17.27;10.10;;;;;;;-6.93;66.24;99922.88;7508287;23;20289;-57
2023/02/07 01:07:47;;;;;;;18.87;10.43;;;;;;;-6.82;65.93;99945.66;7505401;23;20210;-57
2023/02/07 01:10:49;;;;;;;21.87;11.33;;;;;;;-6.82;65.68;99964.63;7506652;23;20700;-59
2023/02/07 01:13:52;;;;;;;20.23;11.60;;;;;;;-7.13;66.34;99918.66;7507349;23;20215;-57
2023/02/07 01:16:56;;;;;;;18.97;10.80;;;;;;;-6.99;66.00;99940.44;7508158;23;20214;-58
2023/02/07 01:19:59;;;;;;;18.57;11.37;;;;;;;-6.87;65.83;99952.81;7505279;23;20242;-58
2023/02/07 01:23:02;;;;;;;20.77;10.70;;;;;;;-6.92;65.98;99944.44;7507044;23;20215;-56
2023/02/07 01:26:04;;;;;;;18.83;10.80;;;;;;;-6.93;65.87;99940.16;7506576;23;20214;-56
2023/02/07 01:29:07;;;;;;;20.53;11.67;;;;;;;-6.86;65.76;99937.19;7505634;23;20597;-57
2023/02/07 01:32:09;;;;;;;21.63;11.10;;;;;;;-6.92;65.90;99905.56;7507578;23;20578;-59
2023/02/07 01:35:11;;;;;;;20.07;11.50;;;;;;;-6.86;65.77;99910.44;7506041;23;20289;-56
2023/02/07 01:38:14;;;;;;;20.47;12.43;;;;;;;-7.02;66.00;99910.38;7506275;23;20210;-57
2023/02/07 01:41:17;;;;;;;26.53;12.43;;;;;;;-7.18;65.96;99855.06;7508756;23;20215;-57
2023/02/07 01:44:22;;;;;;;22.00;12.40;;;;;;;-6.94;65.80;99907.41;7504218;23;20597;-58
2023/02/07 01:47:24;;;;;;;21.60;13.13;;;;;;;-6.97;66.03;99900.63;7507212;23;20217;-57
2023/02/07 01:50:27;;;;;;;22.17;11.40;;;;;;;-6.94;66.12;99905.66;7506467;23;20753;-58
2023/02/07 01:53:30;;;;;;;22.70;12.13;;;;;;;-6.91;66.07;99899.47;7506949;23;20214;-59
2023/02/07 01:56:36;;;;;;;21.37;12.77;;;;;;;-6.94;65.79;99903.06;7513027;23;20545;-56
2023/02/07 01:59:42;;;;;;;24.93;12.93;;;;;;;-6.93;65.46;99904.72;7504264;23;20219;-58
2023/02/07 02:02:45;;;;;;;22.13;12.43;;;;;;;-6.92;65.52;99890.84;7505955;23;20512;-58
2023/02/07 02:05:53;;;;;;;21.90;12.63;;;;;;;-6.94;65.22;99897.03;7506878;23;20363;-58
2023/02/07 02:08:57;;;;;;;24.23;12.73;;;;;;;-6.99;65.25;99891.22;7505811;23;20242;-57
2023/02/07 02:12:19;;;;;;;25.40;12.87;;;;;;;-7.01;65.52;99874.00;7508763;23;20219;-58
2023/02/07 02:16:02;;;;;;;22.67;12.03;;;;;;;-7.02;65.29;99874.94;7504473;23;20219;-59
2023/02/07 02:19:23;;;;;;;26.33;14.23;;;;;;;-7.20;65.71;99900.91;7467357;23;20219;-58
2023/02/07 02:22:59;;;;;;;26.87;14.30;;;;;;;-7.17;65.37;99908.53;7506308;23;20597;-57
2023/02/07 02:26:19;;;;;;;25.13;15.23;;;;;;;-7.15;65.95;99910.13;7507284;23;20275;-59
2023/02/07 02:30:06;;;;;;;27.13;16.07;;;;;;;-7.22;65.89;99924.28;7502753;23;20289;-58
2023/02/07 02:33:23;;;;;;;29.23;15.97;;;;;;;-7.24;65.97;99914.91;7506304;23;20730;-57
2023/02/07 02:36:32;;;;;;;35.07;17.00;;;;;;;-7.20;65.86;99903.50;7505927;23;20675;-59
2023/02/07 02:39:37;;;;;;;36.30;16.90;;;;;;;-7.18;65.60;99899.09;7503749;23;20258;-59
2023/02/07 02:42:46;;;;;;;34.40;18.83;;;;;;;-7.17;65.18;99899.00;7505419;23;20586;-56
2023/02/07 02:46:02;;;;;;;38.73;19.43;;;;;;;-7.19;65.39;99889.63;7505249;23;20225;-56
2023/02/07 02:49:09;;;;;;;30.67;16.27;;;;;;;-7.23;65.74;99891.53;7514369;23;20230;-55
2023/02/07 02:52:12;;;;;;;33.20;16.57;;;;;;;-7.19;65.45;99880.13;7506116;23;20264;-57
2023/02/07 02:55:16;;;;;;;36.50;17.80;;;;;;;-7.18;65.21;99871.44;7506477;23;20222;-57
2023/02/07 02:58:39;;;;;;;29.53;15.83;;;;;;;-7.16;65.32;99871.34;7503506;23;20270;-56
2023/02/07 03:01:50;;;;;;;31.60;16.60;;;;;;;-7.19;65.33;99863.72;7507000;23;20222;-58
2023/02/07 03:05:07;;;;;;;33.70;16.63;;;;;;;-7.21;65.34;99858.63;7506222;23;20218;-57
2023/02/07 03:08:22;;;;;;;32.33;16.33;;;;;;;-7.25;65.40;99853.69;7505157;23;20210;-58
2023/02/07 03:11:29;;;;;;;28.33;16.33;;;;;;;-7.25;66.00;99849.34;7504834;23;20210;-57
2023/02/07 03:14:54;;;;;;;33.27;16.40;;;;;;;-7.31;65.27;99840.13;7506513;23;20608;-56
2023/02/07 03:18:04;;;;;;;28.77;16.33;;;;;;;-7.30;65.37;99836.63;7494502;23;20657;-58
2023/02/07 03:21:37;;;;;;;31.10;16.23;;;;;;;-7.37;65.85;99824.06;7504888;23;20286;-55
2023/02/07 03:24:44;;;;;;;33.37;17.57;;;;;;;-7.39;66.42;99831.06;7506945;23;20285;-56
2023/02/07 03:27:49;;;;;;;29.60;16.07;;;;;;;-7.43;66.83;99835.56;7504199;23;20266;-56
2023/02/07 03:30:55;;;;;;;31.30;17.00;;;;;;;-7.40;67.16;99838.00;7506362;23;20221;-56
2023/02/07 03:34:08;;;;;;;26.70;15.57;;;;;;;-7.39;67.22;99849.19;7507184;23;20528;-52
2023/02/07 03:37:31;;;;;;;36.60;17.67;;;;;;;-7.36;67.73;99867.16;7506477;23;20294;-59
2023/02/07 03:40:41;;;;;;;39.23;19.20;;;;;;;-7.31;67.79;99867.78;7506539;23;20207;-56
2023/02/07 03:43:44;;;;;;;35.07;18.90;;;;;;;-7.32;67.86;99855.75;7505936;23;20235;-56
2023/02/07 03:46:48;;;;;;;36.13;20.50;;;;;;;-7.32;67.98;99843.63;7506182;23;20215;-57
2023/02/07 03:49:50;;;;;;;29.40;17.60;;;;;;;-7.34;68.34;99844.59;7506605;23;20293;-58
2023/02/07 03:52:52;;;;;;;36.97;18.77;;;;;;;-7.28;68.14;99855.53;7505599;23;20218;-57
2023/02/07 03:55:54;;;;;;;34.97;18.00;;;;;;;-7.24;67.85;99865.72;7509659;23;20557;-55
2023/02/07 03:58:56;;;;;;;35.03;18.07;;;;;;;-7.26;67.79;99852.84;7507465;23;20321;-56
2023/02/07 04:01:58;;;;;;;32.60;18.00;;;;;;;-7.13;67.70;99876.41;7510100;23;20675;-56
2023/02/07 04:05:00;;;;;;;36.13;18.23;;;;;;;-7.15;67.72;99873.84;7510016;23;20217;-56
2023/02/07 04:08:03;;;;;;;36.50;18.73;;;;;;;-7.22;67.63;99861.31;7508191;23;20242;-59
2023/02/07 04:11:05;;;;;;;37.97;18.60;;;;;;;-7.23;67.91;99877.75;7507773;23;20214;-58
2023/02/07 04:14:07;;;;;;;36.50;18.83;;;;;;;-7.21;67.82;99873.34;7510494;23;20622;-57
2023/02/07 04:17:09;;;;;;;36.83;19.67;;;;;;;-7.28;67.62;99875.41;7508901;23;20262;-57
2023/02/07 04:20:11;;;;;;;35.17;19.47;;;;;;;-7.45;68.05;99867.59;7507676;23;20237;-57
2023/02/07 04:23:13;;;;;;;35.37;19.63;;;;;;;-7.49;68.31;99873.84;7508462;23;20246;-57
2023/02/07 04:26:15;;;;;;;34.87;18.50;;;;;;;-7.50;68.70;99872.16;7507599;23;20301;-55
2023/02/07 04:29:17;;;;;;;36.43;19.53;;;;;;;-7.49;68.74;99868.66;7507097;23;20219;-59
2023/02/07 04:32:19;;;;;;;40.67;18.97;;;;;;;-7.57;69.24;99880.22;7508162;23;20222;-58
2023/02/07 04:35:22;;;;;;;37.30;19.30;;;;;;;-7.71;69.18;99840.41;7507877;23;20214;-57
2023/02/07 04:38:25;;;;;;;38.67;18.90;;;;;;;-7.48;69.39;99863.44;7507908;23;20222;-57
2023/02/07 04:41:31;;;;;;;39.23;20.20;;;;;;;-7.50;69.31;99870.41;7508528;23;20207;-58
2023/02/07 04:44:33;;;;;;;36.83;18.50;;;;;;;-7.39;69.34;99878.50;7507645;23;20215;-59
2023/02/07 04:47:35;;;;;;;34.13;19.50;;;;;;;-7.99;69.09;99764.09;7508657;23;20211;-59
2023/02/07 04:50:37;;;;;;;38.23;19.90;;;;;;;-7.27;69.26;99866.72;7507148;23;20611;-58
2023/02/07 04:53:39;;;;;;;35.67;19.90;;;;;;;-7.32;69.05;99890.25;7507916;23;20609;-59
2023/02/07 04:56:42;;;;;;;37.97;19.60;;;;;;;-7.33;69.10;99883.38;7506961;23;20220;-55
2023/02/07 04:59:44;;;;;;;34.30;18.57;;;;;;;-7.38;69.23;99884.53;7508299;23;20508;-58
2023/02/07 05:02:46;;;;;;;34.43;17.37;;;;;;;-7.45;69.40;99889.16;7507771;23;20222;-58
2023/02/07 05:05:48;;;;;;;41.23;19.50;;;;;;;-7.44;69.38;99888.22;7508128;23;20214;-59
2023/02/07 05:08:50;;;;;;;38.20;19.30;;;;;;;-7.45;69.30;99893.47;7508451;23;20238;-55
2023/02/07 05:11:52;;;;;;;35.70;19.97;;;;;;;-7.61;69.50;99863.16;7507144;23;20250;-58
2023/02/07 05:14:54;;;;;;;32.57;17.93;;;;;;;-7.39;69.28;99900.94;7508748;23;20217;-58
2023/02/07 05:18:00;;;;;;;31.57;17.40;;;;;;;-7.34;69.27;99904.16;7508054;23;20599;-57
2023/02/07 05:21:02;;;;;;;38.27;19.43;;;;;;;-7.28;69.12;99919.41;7505313;23;20325;-58
2023/02/07 05:24:04;;;;;;;33.00;16.83;;;;;;;-7.25;68.59;99914.06;7507185;23;20706;-58
2023/02/07 05:27:06;;;;;;;33.20;18.03;;;;;;;-7.22;68.29;99913.09;7507148;23;20214;-58
2023/02/07 05:30:09;;;;;;;34.73;18.80;;;;;;;-7.36;67.95;99896.47;7506307;23;20481;-58
2023/02/07 05:33:11;;;;;;;54.40;27.50;;;;;;;-7.20;67.65;99924.22;7506193;23;20210;-58
2023/02/07 05:36:13;;;;;;;46.37;23.47;;;;;;;-7.34;68.04;99923.16;7508907;23;20202;-58
2023/02/07 05:39:15;;;;;;;37.83;19.47;;;;;;;-7.37;68.28;99925.03;7507662;23;20566;-59
2023/02/07 05:42:17;;;;;;;34.80;18.10;;;;;;;-7.36;67.83;99935.31;7508689;23;20226;-57
2023/02/07 05:45:20;;;;;;;31.83;16.67;;;;;;;-7.43;67.72;99928.75;7507063;23;20529;-59
2023/02/07 05:48:22;;;;;;;35.37;17.20;;;;;;;-7.42;67.64;99930.44;7506482;23;20214;-58
2023/02/07 05:51:24;;;;;;;34.30;17.63;;;;;;;-7.41;67.38;99926.09;7507282;23;20202;-58
2023/02/07 05:54:26;;;;;;;30.17;16.27;;;;;;;-7.40;67.48;99931.19;7507642;23;20239;-59
2023/02/07 05:57:28;;;;;;;31.00;16.80;;;;;;;-7.54;67.47;99916.31;7507137;23;20546;-59
2023/02/07 06:00:30;;;;;;;35.63;18.63;;;;;;;-7.36;67.60;99932.72;7508380;23;20519;-58
2023/02/07 06:03:32;;;;;;;36.23;17.90;;;;;;;-7.37;67.76;99930.22;7507058;23;20214;-57
2023/02/07 06:06:35;;;;;;;32.00;17.17;;;;;;;-7.33;67.68;99926.56;7507206;23;20596;-57
2023/02/07 06:09:37;;;;;;;30.27;16.13;;;;;;;-7.28;67.36;99922.00;7508320;23;20233;-58
2023/02/07 06:12:39;;;;;;;31.70;16.83;;;;;;;-7.37;67.82;99906.91;7508110;23;20293;-58
2023/02/07 06:15:41;;;;;;;33.03;16.30;;;;;;;-7.21;67.82;99918.19;7506977;23;20550;-58
2023/02/07 06:18:43;;;;;;;38.67;19.30;;;;;;;-7.15;67.66;99923.06;7506665;23;20210;-59
2023/02/07 06:21:45;;;;;;;36.53;17.43;;;;;;;-7.20;67.37;99924.22;7507925;23;20214;-57
2023/02/07 06:24:47;;;;;;;32.53;17.47;;;;;;;-7.39;67.94;99885.41;7507049;23;20214;-58
2023/02/07 06:27:49;;;;;;;32.30;18.20;;;;;;;-7.17;67.83;99919.72;7506376;23;20214;-57
2023/02/07 06:30:52;;;;;;;35.03;16.90;;;;;;;-7.38;67.60;99890.53;7508421;23;20210;-59
2023/02/07 06:33:54;;;;;;;32.77;16.60;;;;;;;-7.11;67.82;99934.13;7505940;23;20687;-57
2023/02/07 06:36:56;;;;;;;31.67;16.03;;;;;;;-7.25;67.88;99903.72;7506434;23;20565;-57
2023/02/07 06:39:58;;;;;;;35.87;18.07;;;;;;;-7.00;67.66;99931.84;7505820;23;20214;-58
2023/02/07 06:43:00;;;;;;;30.40;16.40;;;;;;;-6.96;67.37;99937.72;7506753;23;20211;-59
2023/02/07 06:46:03;;;;;;;34.80;18.23;;;;;;;-6.95;67.58;99935.03;7506956;23;20226;-58
2023/02/07 06:49:05;;;;;;;36.10;18.20;;;;;;;-7.03;67.63;99921.66;7506388;23;20270;-58
2023/02/07 06:52:07;;;;;;;37.80;19.43;;;;;;;-7.04;67.16;99904.44;7506623;23;20214;-55
2023/02/07 06:55:09;;;;;;;29.13;16.33;;;;;;;-7.07;67.09;99900.22;7505739;23;20221;-55
2023/02/07 06:58:11;;;;;;;32.73;17.20;;;;;;;-6.68;67.19;99950.97;7507966;23;20206;-56
2023/02/07 07:01:18;;;;;;;35.07;18.90;;;;;;;-6.81;67.37;99932.59;7507045;23;20607;-57
2023/02/07 07:04:21;;;;;;;34.00;17.57;;;;;;;-6.62;67.29;99960.19;7506244;23;20210;-58
2023/02/07 07:07:23;;;;;;;32.07;18.40;;;;;;;-6.54;66.92;99955.47;7507841;23;20730;-58
2023/02/07 07:10:25;;;;;;;38.07;18.83;;;;;;;-6.47;67.07;99964.59;7506883;23;20216;-57
2023/02/07 07:13:27;;;;;;;29.70;15.23;;;;;;;-6.34;67.30;99947.50;7511469;23;20218;-55
2023/02/07 07:16:29;;;;;;;33.17;16.73;;;;;;;-6.34;66.94;99957.88;7510980;23;20229;-58
2023/02/07 07:19:31;;;;;;;33.67;16.87;;;;;;;-6.30;67.35;99943.00;7511066;23;20670;-59
2023/02/07 07:22:33;;;;;;;32.07;17.77;;;;;;;-6.21;67.14;99950.28;7514532;23;20206;-59
2023/02/07 07:25:35;;;;;;;30.23;16.90;;;;;;;-6.21;67.28;99942.50;7514975;23;20546;-57
2023/02/07 07:28:38;;;;;;;33.30;16.73;;;;;;;-6.18;67.05;99942.38;7508930;23;20218;-56
2023/02/07 07:31:40;;;;;;;30.93;17.07;;;;;;;-6.30;67.59;99932.66;7508222;23;20588;-58
2023/02/07 07:34:42;;;;;;;29.80;15.77;;;;;;;-6.21;68.13;99937.31;7508634;23;20222;-56
2023/02/07 07:37:44;;;;;;;30.83;16.77;;;;;;;-6.02;67.52;99938.03;7509013;23;20210;-58
2023/02/07 07:40:46;;;;;;;35.77;18.10;;;;;;;-6.77;67.09;99783.84;7508578;23;20214;-59
2023/02/07 07:43:48;;;;;;;28.50;15.87;;;;;;;-5.77;66.27;99940.13;7509561;23;20246;-57
2023/02/07 07:46:51;;;;;;;30.87;15.60;;;;;;;-5.64;66.34;99937.72;7507221;23;20218;-58
2023/02/07 07:49:53;;;;;;;29.80;16.67;;;;;;;-5.64;65.63;99929.91;7507840;23;20225;-56
2023/02/07 07:52:56;;;;;;;27.60;15.37;;;;;;;-5.67;65.39;99911.06;7509450;23;20214;-58
2023/02/07 07:55:58;;;;;;;30.57;16.00;;;;;;;-5.30;64.88;99941.03;7506632;23;20224;-58
2023/02/07 07:59:01;;;;;;;29.90;15.10;;;;;;;-5.19;64.38;99949.06;7508583;23;20214;-58
2023/02/07 08:02:13;;;;;;;25.17;16.07;;;;;;;-5.17;65.64;99949.84;7508136;23;20218;-58
2023/02/07 08:05:15;;;;;;;30.77;15.10;;;;;;;-5.36;64.38;99916.25;7509305;23;20726;-59
2023/02/07 08:08:21;;;;;;;27.37;16.13;;;;;;;-5.05;64.32;99951.72;7508031;23;20296;-59
2023/02/07 08:11:23;;;;;;;29.63;15.93;;;;;;;-4.88;63.96;99962.91;7508476;23;20675;-57
2023/02/07 08:14:25;;;;;;;30.30;15.93;;;;;;;-5.20;63.62;99906.66;7505877;23;20541;-57
2023/02/07 08:17:27;;;;;;;27.37;15.67;;;;;;;-4.76;63.19;99954.44;7508280;23;20221;-55
2023/02/07 08:20:30;;;;;;;28.73;14.97;;;;;;;-4.78;62.86;99945.88;7508461;23;20524;-55
2023/02/07 08:23:33;;;;;;;26.87;15.73;;;;;;;-4.74;62.29;99940.41;7508872;23;20596;-58
2023/02/07 08:26:35;;;;;;;31.67;16.70;;;;;;;-4.71;62.45;99942.00;7508637;23;20210;-59
2023/02/07 08:29:37;;;;;;;30.63;16.10;;;;;;;-4.70;62.64;99943.66;7507302;23;20313;-59
2023/02/07 08:32:41;;;;;;;29.30;15.30;;;;;;;-4.84;62.86;99928.88;7509843;23;20214;-59
2023/02/07 08:35:43;;;;;;;30.23;16.23;;;;;;;-4.53;62.50;99943.53;7507952;23;20210;-56
2023/02/07 08:38:45;;;;;;;27.30;15.37;;;;;;;-4.38;62.12;99941.78;7507739;23;20221;-58
2023/02/07 08:41:47;;;;;;;28.37;15.37;;;;;;;-4.18;61.71;99935.38;7507873;23;20281;-58
2023/02/07 08:44:49;;;;;;;31.50;16.73;;;;;;;-4.38;60.85;99910.56;7507225;23;20293;-59
2023/02/07 08:47:51;;;;;;;29.13;15.47;;;;;;;-4.27;61.32;99935.94;7507290;23;20218;-58
2023/02/07 08:50:54;;;;;;;27.07;14.63;;;;;;;-4.22;61.04;99939.09;7507998;23;20216;-56
2023/02/07 08:53:56;;;;;;;29.27;17.57;;;;;;;-4.07;60.79;99940.78;7507557;23;20265;-57
2023/02/07 08:56:58;;;;;;;28.93;15.93;;;;;;;-3.99;60.58;99938.53;7508084;23;20221;-56
2023/02/07 09:00:01;;;;;;;30.13;16.17;;;;;;;-3.86;60.18;99925.59;7507290;23;20286;-52
2023/02/07 09:03:03;;;;;;;25.70;15.57;;;;;;;-3.77;60.26;99937.22;7509152;23;20234;-55
2023/02/07 09:06:06;;;;;;;31.23;16.47;;;;;;;-3.63;59.56;99929.38;7506064;23;20183;-59
2023/02/07 09:09:09;;;;;;;26.40;15.63;;;;;;;-3.55;59.22;99916.69;7504424;23;20210;-58
2023/02/07 09:12:12;;;;;;;24.40;15.50;;;;;;;-3.30;58.30;99915.13;7507568;23;20210;-56
2023/02/07 09:15:14;;;;;;;30.17;17.20;;;;;;;-3.26;58.28;99914.00;7507190;23;20182;-58
2023/02/07 09:18:16;;;;;;;26.83;16.07;;;;;;;-3.25;58.23;99919.13;7507432;23;20186;-57
2023/02/07 09:21:18;;;;;;;25.40;14.87;;;;;;;-3.22;57.22;99912.88;7507824;23;20189;-59
2023/02/07 09:24:20;;;;;;;31.60;16.17;;;;;;;-3.02;57.91;99915.00;7505847;23;20221;-59
2023/02/07 09:27:24;;;;;;;26.60;15.23;;;;;;;-2.87;57.88;99921.81;7504380;23;20589;-58
2023/02/07 09:30:26;;;;;;;28.30;16.20;;;;;;;-2.77;56.33;99924.66;7506974;23;20206;-59
2023/02/07 09:33:28;;;;;;;26.93;14.77;;;;;;;-2.77;56.82;99921.22;7508457;23;20651;-57
2023/02/07 09:36:31;;;;;;;24.73;14.33;;;;;;;-2.75;56.23;99898.50;7507241;23;20217;-54
2023/02/07 09:39:35;;;;;;;28.67;15.13;;;;;;;-2.61;56.25;99921.88;7507377;23;20210;-58
2023/02/07 09:43:12;;;;;;;27.40;15.07;;;;;;;-2.21;55.14;99891.28;7508481;23;20199;-58
2023/02/07 09:46:24;;;;;;;22.67;13.43;;;;;;;-0.77;51.89;99912.28;7484519;23;20226;-56
2023/02/07 09:49:29;;;;;;;20.30;12.90;;;;;;;1.76;45.56;99898.13;7507793;23;20529;-56
2023/02/07 09:52:47;;;;;;;23.80;13.60;;;;;;;3.13;40.17;99903.59;7504768;23;20214;-57
2023/02/07 09:55:55;;;;;;;22.87;14.77;;;;;;;3.93;38.38;99906.75;7507360;23;20675;-58
2023/02/07 09:59:23;;;;;;;26.63;14.77;;;;;;;5.30;36.08;99903.13;7507223;23;20674;-57
2023/02/07 10:02:35;;;;;;;22.23;13.27;;;;;;;6.28;33.93;99907.22;7508088;23;20222;-56
2023/02/07 10:05:50;;;;;;;20.10;13.00;;;;;;;6.86;33.10;99903.75;7507469;23;20229;-56
2023/02/07 10:08:58;;;;;;;21.13;13.43;;;;;;;7.60;31.52;99866.63;7505369;23;20218;-57
2023/02/07 10:12:12;;;;;;;21.27;13.73;;;;;;;8.87;30.38;99892.19;7507361;23;20206;-58
2023/02/07 10:15:26;;;;;;;22.17;14.90;;;;;;;9.07;29.36;99892.56;7506054;23;20679;-58
2023/02/07 10:18:49;;;;;;;18.90;12.80;;;;;;;8.86;28.54;99894.00;7506774;23;20233;-58
2023/02/07 10:22:05;;;;;;;22.17;14.33;;;;;;;9.16;27.92;99888.81;7506303;23;20318;-57
2023/02/07 10:25:26;;;;;;;20.77;13.40;;;;;;;8.69;28.37;99889.81;7508168;23;20216;-57
2023/02/07 10:28:31;;;;;;;20.40;13.63;;;;;;;8.91;27.90;99883.66;7506268;23;20220;-55
2023/02/07 10:31:37;;;;;;;18.53;13.17;;;;;;;8.81;28.29;99874.28;7506893;23;20215;-55
2023/02/07 10:34:46;;;;;;;16.80;11.77;;;;;;;8.27;27.76;99785.59;7506833;23;20218;-56
2023/02/07 10:37:52;;;;;;;20.17;12.63;;;;;;;9.07;26.90;99828.75;7506318;23;20210;-59
2023/02/07 10:41:05;;;;;;;19.27;12.63;;;;;;;9.33;27.04;99849.63;7504945;23;20224;-57
2023/02/07 10:44:17;;;;;;;17.37;12.30;;;;;;;9.40;27.14;99856.69;7507221;23;20218;-56
2023/02/07 10:47:21;;;;;;;19.00;13.23;;;;;;;8.33;27.78;99849.63;7506388;23;20568;-56
2023/02/07 10:50:25;;;;;;;21.30;12.70;;;;;;;7.26;28.44;99846.47;7507364;23;20278;-58
2023/02/07 10:53:48;;;;;;;20.83;12.93;;;;;;;7.28;28.94;99836.50;7507318;23;20303;-58
2023/02/07 10:57:00;;;;;;;20.70;12.83;;;;;;;7.00;29.04;99845.81;7507223;23;20215;-56
2023/02/07 11:00:09;;;;;;;23.33;12.97;;;;;;;7.45;29.15;99847.94;7504598;23;20183;-58
2023/02/07 11:03:25;;;;;;;18.90;11.80;;;;;;;6.95;29.46;99836.53;7506001;23;20539;-59
2023/02/07 11:06:33;;;;;;;17.97;11.63;;;;;;;5.77;30.83;99848.09;7505082;23;20211;-58
2023/02/07 11:09:36;;;;;;;16.50;11.60;;;;;;;4.26;33.15;99844.69;7506159;23;20650;-59
2023/02/07 11:12:48;;;;;;;21.67;12.67;;;;;;;3.58;35.22;99850.25;7505684;23;20206;-57
2023/02/07 11:16:03;;;;;;;18.10;11.83;;;;;;;3.20;34.93;99851.19;7506133;23;20211;-59
2023/02/07 11:19:06;;;;;;;18.30;12.60;;;;;;;2.70;35.98;99838.19;7506158;23;20663;-55
2023/02/07 11:22:16;;;;;;;18.37;12.03;;;;;;;2.53;37.09;99834.44;7505012;23;20616;-58
2023/02/07 11:25:27;;;;;;;18.57;11.53;;;;;;;2.66;36.98;99832.38;7506190;23;20221;-57
2023/02/07 11:28:31;;;;;;;19.97;13.17;;;;;;;1.95;38.08;99829.06;7505590;23;20240;-54
2023/02/07 11:31:36;;;;;;;19.03;12.00;;;;;;;2.04;39.34;99831.72;7504808;23;20239;-57
2023/02/07 11:34:50;;;;;;;19.87;12.77;;;;;;;1.99;38.86;99819.94;7507196;23;20223;-57
2023/02/07 11:38:04;;;;;;;18.07;11.10;;;;;;;1.91;39.01;99825.03;7507917;23;20282;-58
2023/02/07 11:41:20;;;;;;;20.83;11.30;;;;;;;1.96;38.55;99817.56;7505912;23;20603;-58
2023/02/07 11:44:25;;;;;;;19.77;11.60;;;;;;;1.66;40.22;99827.16;7505790;23;20231;-58
2023/02/07 11:47:30;;;;;;;19.00;12.03;;;;;;;1.51;39.53;99813.53;7505254;23;20829;-57
2023/02/07 11:50:39;;;;;;;22.87;13.50;;;;;;;1.13;40.78;99784.47;7506071;23;20224;-57
2023/02/07 11:53:50;;;;;;;19.73;12.67;;;;;;;1.22;40.91;99813.38;7506283;23;20557;-57
2023/02/07 11:57:05;;;;;;;20.80;13.03;;;;;;;1.30;41.14;99812.75;7507548;23;20238;-56
2023/02/07 12:00:23;;;;;;;22.93;13.93;;;;;;;1.33;41.70;99812.50;7502388;23;20535;-57
2023/02/07 12:03:33;;;;;;;20.40;13.10;;;;;;;0.84;42.15;99779.03;7506903;23;20215;-56
2023/02/07 12:07:00;;;;;;;18.73;11.43;;;;;;;1.24;41.42;99800.16;7507843;23;20269;-57
2023/02/07 12:10:05;;;;;;;22.53;13.47;;;;;;;1.38;40.90;99806.84;7507675;23;20740;-57
2023/02/07 12:13:19;;;;;;;18.27;12.77;;;;;;;1.01;40.98;99765.34;7508827;23;20215;-57
2023/02/07 12:16:24;;;;;;;19.30;12.57;;;;;;;1.42;40.83;99816.13;7508632;23;20285;-59
2023/02/07 12:19:36;;;;;;;18.57;12.07;;;;;;;1.35;41.22;99801.88;7508084;23;20217;-56
2023/02/07 12:22:47;;;;;;;17.03;11.70;;;;;;;1.24;41.51;99808.84;7508020;23;20797;-57
2023/02/07 12:26:17;;;;;;;17.67;11.57;;;;;;;1.35;41.86;99802.69;7506464;23;20347;-57
2023/02/07 12:29:42;;;;;;;21.57;12.47;;;;;;;1.38;41.60;99797.19;7505819;23;20680;-55
2023/02/07 12:33:25;;;;;;;20.83;12.23;;;;;;;1.03;42.11;99810.66;7508231;23;20732;-58
2023/02/07 12:36:38;;;;;;;17.80;11.27;;;;;;;1.37;41.61;99805.19;7514528;23;20235;-59
2023/02/07 12:39:51;;;;;;;21.63;12.43;;;;;;;1.24;42.52;99803.59;7508107;23;20217;-56
2023/02/07 12:42:58;;;;;;;18.07;10.40;;;;;;;1.35;42.65;99796.63;7505941;23;20272;-58
2023/02/07 12:46:00;;;;;;;18.83;12.03;;;;;;;1.14;41.72;99794.84;7509065;23;20239;-58
2023/02/07 12:49:22;;;;;;;21.53;13.77;;;;;;;1.14;42.56;99786.16;7508469;23;20674;-58
2023/02/07 12:52:49;;;;;;;21.90;13.90;;;;;;;0.75;43.68;99793.75;7508900;23;20317;-59
2023/02/07 12:56:07;;;;;;;19.17;12.50;;;;;;;0.48;45.33;99765.38;7508300;23;20219;-57
2023/02/07 12:59:24;;;;;;;20.43;12.60;;;;;;;0.64;44.17;99796.41;7506582;23;20238;-57
2023/02/07 13:03:09;;;;;;;17.80;11.83;;;;;;;0.72;44.25;99794.00;7507961;23;20211;-59
2023/02/07 13:06:40;;;;;;;19.43;12.37;;;;;;;0.61;44.30;99747.69;7398255;24;20224;-55
2023/02/07 13:09:54;;;;;;;18.37;12.23;;;;;;;1.01;43.90;99788.97;7389165;24;20220;-57
2023/02/07 13:13:01;;;;;;;16.13;11.60;;;;;;;1.05;43.86;99790.38;7398156;24;20600;-59
2023/02/07 13:16:17;;;;;;;21.67;12.33;;;;;;;0.97;44.07;99758.69;7398784;24;20240;-59
2023/02/07 13:19:31;;;;;;;19.67;11.47;;;;;;;0.76;45.24;99785.75;7397892;24;20692;-60
2023/02/07 13:22:45;;;;;;;18.90;11.13;;;;;;;0.96;44.54;99786.72;7397719;24;20289;-58
2023/02/07 13:26:10;;;;;;;17.13;11.00;;;;;;;0.92;45.00;99782.69;7399328;24;20250;-58
2023/02/07 13:29:15;;;;;;;19.17;12.13;;;;;;;0.85;44.97;99789.41;7397025;24;20225;-56
2023/02/07 13:32:23;;;;;;;18.20;10.63;;;;;;;0.83;45.13;99775.56;7397604;24;20356;-58
2023/02/07 13:35:30;;;;;;;17.57;11.77;;;;;;;0.50;46.14;99779.22;7405916;23;20230;-57
2023/02/07 13:38:38;;;;;;;18.83;11.07;;;;;;;0.23;46.96;99766.56;7507430;23;20214;-60
2023/02/07 13:42:23;;;;;;;20.10;12.23;;;;;;;0.01;47.11;99766.63;7506228;23;20211;-58
2023/02/07 13:45:50;;;;;;;16.67;11.43;;;;;;;-0.27;47.28;99763.59;7507077;23;20218;-59
2023/02/07 13:49:02;;;;;;;19.07;11.60;;;;;;;-0.46;47.88;99748.47;7508290;23;20245;-58
2023/02/07 13:52:18;;;;;;;22.87;11.57;;;;;;;-0.38;48.18;99747.91;7506393;23;20211;-59
2023/02/07 13:55:38;;;;;;;19.97;11.70;;;;;;;-0.37;48.46;99755.63;7507320;23;20302;-59
2023/02/07 14:02:06;;;;;;;18.37;11.33;;;;;;;-0.49;48.66;99737.41;7507790;23;20294;-59
2023/02/07 14:05:17;;;;;;;17.00;10.67;;;;;;;-0.30;48.38;99750.72;7506457;23;20217;-57
2023/02/07 14:08:23;;;;;;;17.87;10.43;;;;;;;-0.28;48.44;99752.28;7507895;23;20611;-58
2023/02/07 14:11:37;;;;;;;16.30;10.03;;;;;;;-0.33;48.22;99750.97;7506436;23;20254;-60
2023/02/07 14:14:39;;;;;;;19.77;10.23;;;;;;;-0.27;47.94;99750.50;7507611;23;20219;-60
2023/02/07 14:17:43;;;;;;;15.67;9.80;;;;;;;-0.22;48.43;99758.81;7507199;23;20701;-59
2023/02/07 14:20:48;;;;;;;15.50;9.17;;;;;;;-0.24;48.48;99758.13;7506568;23;20281;-55
2023/02/07 14:23:56;;;;;;;19.43;10.67;;;;;;;-0.41;47.99;99758.59;7506855;23;20218;-59
2023/02/07 14:27:00;;;;;;;16.17;9.97;;;;;;;-0.42;48.35;99755.16;7507458;23;20234;-58